Time;durP1;ratioP1;P1;durP2;ratioP2;P2;SDS_P1;SDS_P2;PMS_P1;PMS_P2;Temp;Humidity;BMP_temperature;BMP_pressure;BME280_temperature;BME280_humidity;BME280_pressure;Samples;Min_cycle;Max_cycle;Signal;HPM_P1;HPM_P2
2022/06/13 00:01:35;;;;;;;0.40;0.30;;;;;;;17.52;100.00;95165.84;5091895;28;20450;-66
2022/06/13 00:04:07;;;;;;;0.50;0.30;;;;;;;17.31;100.00;95106.72;5091775;28;20474;-66
2022/06/13 00:06:36;;;;;;;1.07;0.40;;;;;;;16.99;100.00;95075.88;5091861;28;20982;-66
2022/06/13 00:09:06;;;;;;;0.60;0.50;;;;;;;17.70;100.00;95160.19;5093077;28;20511;-66
2022/06/13 00:11:35;;;;;;;0.53;0.53;;;;;;;18.01;100.00;95159.19;5096007;28;20971;-66
2022/06/13 00:14:06;;;;;;;0.50;0.37;;;;;;;18.12;100.00;95160.41;5095950;28;20507;-66
2022/06/13 00:16:35;;;;;;;0.43;0.30;;;;;;;18.23;100.00;95157.06;5096208;28;20823;-66
2022/06/13 00:19:03;;;;;;;0.53;0.40;;;;;;;18.19;100.00;95149.97;5095541;28;20522;-66
2022/06/13 00:21:37;;;;;;;1.60;0.30;;;;;;;18.34;100.00;95149.47;5096061;28;20451;-66
2022/06/13 00:24:08;;;;;;;0.40;0.20;;;;;;;18.60;100.00;95142.09;5095701;28;20548;-67
2022/06/13 00:26:38;;;;;;;0.40;0.30;;;;;;;18.80;100.00;95137.88;5095712;28;20421;-67
2022/06/13 00:29:10;;;;;;;0.40;0.20;;;;;;;18.84;100.00;95136.13;5095249;28;20511;-67
2022/06/13 00:31:39;;;;;;;0.40;0.20;;;;;;;18.97;100.00;95132.41;5095543;28;20930;-67
2022/06/13 00:34:07;;;;;;;0.40;0.20;;;;;;;18.90;100.00;95119.50;5095634;28;20499;-67
2022/06/13 00:36:36;;;;;;;0.40;0.23;;;;;;;19.09;100.00;95145.91;5095479;28;20424;-67
2022/06/13 00:39:05;;;;;;;0.50;0.30;;;;;;;18.79;100.00;95145.16;5095454;28;20912;-66
2022/06/13 00:41:38;;;;;;;0.40;0.30;;;;;;;18.16;100.00;95092.41;5095338;28;20905;-66
2022/06/13 00:44:19;;;;;;;0.50;0.30;;;;;;;18.46;100.00;95148.75;5095546;28;20503;-66
2022/06/13 00:46:48;;;;;;;0.40;0.40;;;;;;;18.19;100.00;95156.13;5095372;28;20467;-66
2022/06/13 00:49:20;;;;;;;0.40;0.30;;;;;;;18.47;100.00;95143.09;5095620;28;20492;-66
2022/06/13 00:51:56;;;;;;;0.40;0.40;;;;;;;17.15;100.00;94948.41;5095034;28;20776;-66
2022/06/13 00:54:25;;;;;;;0.40;0.20;;;;;;;18.37;100.00;95159.53;5095196;28;20457;-66
2022/06/13 00:56:55;;;;;;;0.50;0.30;;;;;;;18.34;100.00;95152.13;5095401;28;20424;-66
2022/06/13 00:59:30;;;;;;;0.40;0.30;;;;;;;18.01;100.00;95092.13;5094978;28;20511;-66
2022/06/13 01:01:59;;;;;;;0.40;0.20;;;;;;;18.31;100.00;95150.09;5095371;28;20458;-66
2022/06/13 01:04:28;;;;;;;0.40;0.30;;;;;;;18.49;100.00;95148.94;5096488;28;20547;-66
2022/06/13 01:06:58;;;;;;;0.40;0.30;;;;;;;18.60;100.00;95149.34;5096570;28;20456;-66
2022/06/13 01:12:13;;;;;;;0.50;0.33;;;;;;;18.62;100.00;95150.59;5092863;28;20470;-66
2022/06/13 01:15:02;;;;;;;0.60;0.40;;;;;;;18.66;100.00;95142.69;5093102;28;20455;-66
2022/06/13 01:17:47;;;;;;;0.40;0.30;;;;;;;18.60;100.00;95162.78;5094753;28;20464;-67
2022/06/13 01:20:32;;;;;;;0.40;0.27;;;;;;;18.75;100.00;95135.38;5093950;28;20413;-66
2022/06/13 01:23:36;;;;;;;0.50;0.33;;;;;;;18.86;100.00;95133.91;5095223;28;20460;-66
2022/06/13 01:26:45;;;;;;;0.40;0.20;;;;;;;18.11;100.00;95032.78;5094554;28;20998;-67
2022/06/13 01:29:43;;;;;;;0.40;0.20;;;;;;;19.07;100.00;95141.97;5094687;28;20466;-66
2022/06/13 01:32:43;;;;;;;0.40;0.30;;;;;;;18.95;100.00;95135.41;5079365;28;20475;-66
2022/06/13 01:35:31;;;;;;;0.50;0.50;;;;;;;18.86;100.00;95153.50;5094434;28;20460;-66
2022/06/13 01:38:09;;;;;;;0.40;0.30;;;;;;;18.89;100.00;95138.63;5094348;28;20467;-66
2022/06/13 01:40:51;;;;;;;0.50;0.50;;;;;;;19.10;100.00;95144.03;5094290;28;20986;-66
2022/06/13 01:43:27;;;;;;;0.40;0.20;;;;;;;18.60;100.00;95155.50;5094521;28;20492;-68
2022/06/13 01:46:02;;;;;;;0.40;0.30;;;;;;;18.62;100.00;95145.22;5094552;28;20420;-66
2022/06/13 01:48:38;;;;;;;0.60;0.30;;;;;;;18.65;100.00;95154.53;5094165;28;20492;-66
2022/06/13 01:51:14;;;;;;;0.50;0.40;;;;;;;18.90;100.00;95146.34;5094500;28;20833;-66
2022/06/13 01:53:50;;;;;;;0.40;0.20;;;;;;;18.56;100.00;95141.19;5093890;28;20518;-66
2022/06/13 01:56:22;;;;;;;0.60;0.60;;;;;;;18.30;100.00;95148.50;5094063;28;20485;-66
2022/06/13 01:58:58;;;;;;;0.50;0.33;;;;;;;18.26;100.00;95139.53;5093911;28;20558;-66
2022/06/13 02:01:34;;;;;;;0.40;0.30;;;;;;;17.98;100.00;95141.03;5093952;28;20424;-66
2022/06/13 02:04:12;;;;;;;0.40;0.30;;;;;;;18.02;100.00;95137.41;5094123;28;20472;-66
2022/06/13 02:06:44;;;;;;;0.40;0.30;;;;;;;18.06;100.00;95154.44;5093811;28;20515;-67
2022/06/13 02:09:18;;;;;;;0.57;0.50;;;;;;;18.25;100.00;95178.19;5094147;28;20784;-67
2022/06/13 02:11:49;;;;;;;0.50;0.30;;;;;;;18.06;100.00;95156.31;5093983;28;20428;-67
2022/06/13 02:14:21;;;;;;;0.60;0.40;;;;;;;18.17;100.00;95154.84;5094075;28;20416;-67
2022/06/13 02:16:56;;;;;;;0.50;0.50;;;;;;;18.41;100.00;95136.31;5093958;28;20578;-65
2022/06/13 02:19:32;;;;;;;0.40;0.30;;;;;;;18.48;100.00;95144.69;5093656;28;20479;-67
2022/06/13 02:22:06;;;;;;;1.40;0.80;;;;;;;18.56;100.00;95149.22;5093522;28;20423;-66
2022/06/13 02:24:39;;;;;;;0.60;0.47;;;;;;;18.66;100.00;95153.44;5093767;28;20548;-66
2022/06/13 02:27:11;;;;;;;0.40;0.20;;;;;;;18.35;100.00;95151.00;5093325;28;20515;-67
2022/06/13 02:29:45;;;;;;;0.60;0.50;;;;;;;18.22;100.00;95155.47;5093760;28;20507;-66
2022/06/13 02:32:17;;;;;;;0.60;0.40;;;;;;;18.06;100.00;95161.69;5092358;28;20452;-66
2022/06/13 02:34:56;;;;;;;0.60;0.60;;;;;;;17.83;100.00;95112.84;5093248;28;20446;-66
2022/06/13 02:37:30;;;;;;;0.40;0.30;;;;;;;18.22;100.00;95144.75;5093569;28;20420;-67
2022/06/13 02:40:04;;;;;;;0.40;0.30;;;;;;;18.55;100.00;95158.38;5093370;28;20482;-67
2022/06/13 02:42:39;;;;;;;0.50;0.30;;;;;;;18.27;100.00;95149.16;5093231;28;20795;-67
2022/06/13 02:45:17;;;;;;;0.50;0.40;;;;;;;18.35;100.00;95154.50;5092979;28;20467;-68
2022/06/13 02:47:50;;;;;;;0.40;0.30;;;;;;;18.28;100.00;95138.09;5093362;28;20503;-67
2022/06/13 02:50:26;;;;;;;0.40;0.20;;;;;;;18.29;100.00;95125.50;5093266;28;20416;-67
2022/06/13 02:53:04;;;;;;;0.40;0.20;;;;;;;18.65;100.00;95147.28;5092958;28;20471;-67
2022/06/13 02:55:41;;;;;;;0.40;0.20;;;;;;;18.76;100.00;95145.81;5092790;28;20424;-67
2022/06/13 02:58:24;;;;;;;0.50;0.33;;;;;;;18.60;100.00;95152.03;5092711;28;20424;-67
2022/06/13 03:01:04;;;;;;;0.40;0.30;;;;;;;17.03;100.00;94928.75;5092146;28;20452;-66
2022/06/13 03:03:46;;;;;;;0.40;0.20;;;;;;;18.74;100.00;95137.28;5092744;28;20421;-66
2022/06/13 03:06:22;;;;;;;0.40;0.30;;;;;;;19.11;100.00;95157.13;5092878;28;20449;-66
2022/06/13 03:09:00;;;;;;;0.40;0.30;;;;;;;18.85;100.00;95138.47;5092415;28;20511;-66
2022/06/13 03:11:49;;;;;;;0.40;0.30;;;;;;;19.14;100.00;95169.09;5092587;28;20428;-66
2022/06/13 03:14:32;;;;;;;0.47;0.40;;;;;;;18.79;100.00;95123.69;5093119;28;20428;-67
2022/06/13 03:17:04;;;;;;;0.40;0.30;;;;;;;19.05;100.00;95144.22;5094066;28;20427;-65
2022/06/13 03:19:38;;;;;;;0.70;0.60;;;;;;;19.24;100.00;95157.97;5092741;28;20486;-67
2022/06/13 03:22:11;;;;;;;0.43;0.30;;;;;;;19.26;100.00;95153.84;5092425;28;20455;-66
2022/06/13 03:24:47;;;;;;;0.40;0.20;;;;;;;19.43;100.00;95177.16;5092271;28;20460;-67
2022/06/13 03:27:22;;;;;;;0.50;0.30;;;;;;;19.34;100.00;95158.38;5092429;28;20462;-66
2022/06/13 03:29:58;;;;;;;1.00;0.40;;;;;;;19.35;100.00;95167.22;5092122;28;20451;-65
2022/06/13 03:32:32;;;;;;;0.40;0.30;;;;;;;19.41;100.00;95163.25;5092161;28;20849;-65
2022/06/13 03:35:04;;;;;;;0.50;0.43;;;;;;;19.43;100.00;95167.19;5092124;28;20417;-65
2022/06/13 03:37:40;;;;;;;0.40;0.20;;;;;;;19.45;100.00;95161.50;5091916;28;20838;-65
2022/06/13 03:40:12;;;;;;;0.40;0.30;;;;;;;19.41;100.00;95166.72;5092484;28;20502;-65
2022/06/13 03:42:46;;;;;;;0.40;0.20;;;;;;;19.41;100.00;95168.63;5092129;28;21093;-65
2022/06/13 03:45:26;;;;;;;0.80;0.40;;;;;;;18.94;100.00;95093.56;5091910;28;20502;-65
2022/06/13 03:48:01;;;;;;;0.40;0.20;;;;;;;19.13;100.00;95111.09;5092461;28;20495;-64
2022/06/13 03:50:34;;;;;;;0.50;0.43;;;;;;;19.34;100.00;95155.69;5092053;28;20458;-65
2022/06/13 03:53:20;;;;;;;0.40;0.30;;;;;;;19.36;100.00;95169.59;5091755;28;20579;-66
2022/06/13 03:56:11;;;;;;;0.40;0.30;;;;;;;19.29;100.00;95168.53;5092383;28;20485;-65
2022/06/13 03:58:43;;;;;;;0.50;0.40;;;;;;;19.29;100.00;95180.06;5091935;28;20458;-65
2022/06/13 04:01:16;;;;;;;0.97;0.40;;;;;;;18.79;100.00;95177.38;5092210;28;20474;-66
2022/06/13 04:03:48;;;;;;;0.60;0.50;;;;;;;18.81;100.00;95183.22;5091439;28;20474;-66
2022/06/13 04:06:44;;;;;;;0.50;0.40;;;;;;;19.17;100.00;95176.53;5092171;28;20424;-65
2022/06/13 04:09:20;;;;;;;0.47;0.37;;;;;;;18.74;100.00;95134.59;5067236;28;20531;-66
2022/06/13 04:11:59;;;;;;;0.50;0.47;;;;;;;18.94;100.00;95192.94;5092140;28;20448;-65
2022/06/13 04:14:55;;;;;;;3.73;1.03;;;;;;;19.03;100.00;95190.97;5092049;28;20823;-65
2022/06/13 04:17:30;;;;;;;0.57;0.30;;;;;;;19.11;100.00;95172.44;5092330;28;20562;-65
2022/06/13 04:20:07;;;;;;;0.40;0.30;;;;;;;19.42;100.00;95189.03;5091914;28;20449;-65
2022/06/13 04:22:43;;;;;;;0.50;0.40;;;;;;;19.19;100.00;95163.53;5091744;28;20428;-63
2022/06/13 04:25:23;;;;;;;0.50;0.30;;;;;;;19.25;100.00;95197.94;5091266;28;20601;-65
2022/06/13 04:27:58;;;;;;;0.40;0.30;;;;;;;19.32;100.00;95179.44;5091830;28;20503;-64
2022/06/13 04:30:31;;;;;;;0.40;0.30;;;;;;;19.60;100.00;95201.22;5091380;28;20515;-64
2022/06/13 04:33:05;;;;;;;7.73;1.90;;;;;;;19.58;100.00;95192.72;5091914;28;20499;-64
2022/06/13 04:35:36;;;;;;;0.50;0.30;;;;;;;19.12;100.00;95179.41;5091413;28;20423;-63
2022/06/13 04:38:06;;;;;;;0.53;0.33;;;;;;;18.86;100.00;95198.34;5091900;28;20494;-63
2022/06/13 04:40:40;;;;;;;0.50;0.50;;;;;;;18.65;100.00;95198.28;5091796;28;20869;-63
2022/06/13 04:43:36;;;;;;;0.57;0.50;;;;;;;18.74;100.00;95196.38;5090866;28;20455;-63
2022/06/13 04:46:30;;;;;;;1.27;0.57;;;;;;;19.01;100.00;95200.47;5091109;28;20486;-62
2022/06/13 04:49:12;;;;;;;0.43;0.30;;;;;;;18.94;100.00;95195.63;5091293;28;20801;-62
2022/06/13 04:51:42;;;;;;;0.60;0.40;;;;;;;18.88;100.00;95186.16;5091140;28;20420;-63
2022/06/13 04:54:17;;;;;;;0.40;0.30;;;;;;;17.90;100.00;95024.66;5089387;28;20533;-62
2022/06/13 04:56:48;;;;;;;0.50;0.30;;;;;;;19.59;100.00;95196.94;5093985;28;20488;-61
2022/06/13 04:59:17;;;;;;;0.40;0.30;;;;;;;19.91;100.00;95163.91;5094883;28;20916;-61
2022/06/13 05:01:48;;;;;;;0.40;0.30;;;;;;;20.02;100.00;95167.75;5095118;28;20947;-61
2022/06/13 05:04:19;;;;;;;0.50;0.40;;;;;;;19.89;100.00;95186.88;5094618;28;20474;-62
2022/06/13 05:06:50;;;;;;;0.50;0.40;;;;;;;20.44;100.00;95187.28;5094947;28;20455;-61
2022/06/13 05:09:23;;;;;;;0.47;0.30;;;;;;;20.76;100.00;95183.75;5095082;28;20948;-61
2022/06/13 05:11:57;;;;;;;0.40;0.30;;;;;;;21.05;100.00;95180.00;5094890;28;20876;-61
2022/06/13 05:14:33;;;;;;;0.40;0.30;;;;;;;21.24;100.00;95182.97;5095060;28;20420;-61
2022/06/13 05:17:37;;;;;;;0.40;0.30;;;;;;;21.47;100.00;95181.34;5094568;28;20523;-60
2022/06/13 05:20:14;;;;;;;0.50;0.40;;;;;;;21.56;100.00;95191.97;5094714;28;20504;-61
2022/06/13 05:23:19;;;;;;;0.50;0.40;;;;;;;21.33;100.00;95163.94;5094547;28;20976;-61
2022/06/13 05:25:49;;;;;;;0.50;0.40;;;;;;;21.14;100.00;95177.25;5094608;28;20532;-60
2022/06/13 05:28:22;;;;;;;0.50;0.40;;;;;;;20.15;100.00;95136.28;5096249;28;20912;-60
2022/06/13 05:30:52;;;;;;;1.43;1.37;;;;;;;20.25;100.00;95190.50;5095455;28;20763;-60
2022/06/13 05:33:23;;;;;;;2.27;0.83;;;;;;;20.44;100.00;95192.66;5094457;28;20512;-60
2022/06/13 05:35:54;;;;;;;9.17;1.33;;;;;;;20.77;100.00;95141.44;5094910;28;20499;-60
2022/06/13 05:38:37;;;;;;;0.50;0.50;;;;;;;21.56;100.00;95188.50;5094560;28;20961;-60
2022/06/13 05:41:06;;;;;;;0.40;0.40;;;;;;;21.43;100.00;95172.34;5094568;28;20416;-60
2022/06/13 05:43:36;;;;;;;0.50;0.43;;;;;;;21.37;100.00;95154.84;5094105;28;20991;-60
2022/06/13 05:46:06;;;;;;;1.47;1.00;;;;;;;21.66;100.00;95179.91;5094278;28;20548;-60
2022/06/13 05:48:36;;;;;;;1.70;1.70;;;;;;;21.52;100.00;95178.41;5093504;28;20516;-60
2022/06/13 05:51:04;;;;;;;0.87;0.70;;;;;;;21.30;100.00;95180.81;5094446;28;20444;-60
2022/06/13 05:53:33;;;;;;;0.40;0.30;;;;;;;21.29;100.00;95144.97;5094155;28;20551;-60
2022/06/13 05:56:03;;;;;;;1.30;1.00;;;;;;;21.63;100.00;95178.69;5094147;28;20511;-61
2022/06/13 05:58:32;;;;;;;0.53;0.47;;;;;;;21.72;100.00;95183.94;5093527;28;20493;-58
2022/06/13 06:01:02;;;;;;;0.60;0.30;;;;;;;21.84;100.00;95181.22;5094396;28;20428;-58
2022/06/13 06:03:31;;;;;;;0.70;0.40;;;;;;;21.89;100.00;95183.69;5094047;28;20424;-57
2022/06/13 06:06:02;;;;;;;1.27;0.70;;;;;;;21.91;100.00;95184.13;5094136;28;20547;-56
2022/06/13 06:08:36;;;;;;;0.70;0.57;;;;;;;22.20;100.00;95188.38;5092887;28;20488;-56
2022/06/13 06:11:04;;;;;;;0.40;0.30;;;;;;;22.45;100.00;95187.91;5093859;28;20424;-56
2022/06/13 06:13:33;;;;;;;0.50;0.40;;;;;;;22.22;100.00;95121.31;5093891;28;20508;-56
2022/06/13 06:16:03;;;;;;;0.60;0.40;;;;;;;23.10;100.00;95180.22;5093750;28;20511;-56
2022/06/13 06:18:32;;;;;;;0.50;0.40;;;;;;;22.79;100.00;95147.84;5093091;28;20435;-56
2022/06/13 06:21:01;;;;;;;0.50;0.33;;;;;;;22.23;100.00;95023.81;5093905;28;20509;-56
2022/06/13 06:23:29;;;;;;;0.40;0.30;;;;;;;23.56;100.00;95163.13;5093815;28;20424;-56
2022/06/13 06:25:59;;;;;;;9.77;0.80;;;;;;;22.10;100.00;94914.34;5093841;28;20547;-56
2022/06/13 06:28:28;;;;;;;0.40;0.30;;;;;;;23.97;100.00;95159.72;5093439;28;20520;-56
2022/06/13 06:30:58;;;;;;;0.77;0.60;;;;;;;23.57;100.00;95088.16;5093265;28;20421;-55
2022/06/13 06:33:29;;;;;;;5.83;0.67;;;;;;;24.25;100.00;95169.56;5093788;28;20783;-56
2022/06/13 06:35:57;;;;;;;0.40;0.40;;;;;;;24.68;100.00;95161.03;5093281;28;20424;-56
2022/06/13 06:38:27;;;;;;;0.77;0.77;;;;;;;24.79;100.00;95153.88;5093394;28;20421;-56
2022/06/13 06:40:56;;;;;;;0.40;0.30;;;;;;;25.10;100.00;95140.00;5093384;28;20452;-57
2022/06/13 06:43:25;;;;;;;0.50;0.43;;;;;;;24.93;100.00;95090.94;5093154;28;20535;-57
2022/06/13 06:45:54;;;;;;;0.40;0.40;;;;;;;24.26;100.00;94997.78;5093111;28;20464;-58
2022/06/13 06:48:24;;;;;;;0.40;0.40;;;;;;;25.61;100.00;95148.50;5093108;28;20546;-58
2022/06/13 06:50:54;;;;;;;0.50;0.33;;;;;;;26.07;100.00;95149.06;5093395;28;20417;-59
2022/06/13 06:59:53;;;;;;;0.47;0.47;;;;;;;26.16;94.16;95122.38;5092826;28;20559;-59
2022/06/13 07:01:48;;;;;;;0.40;0.30;;;;;;;27.42;85.70;95149.13;5092796;28;20531;-59
2022/06/13 07:04:16;;;;;;;1.40;0.70;;;;;;;25.82;100.00;95134.41;5092727;28;20427;-60
2022/06/13 07:06:46;;;;;;;0.60;0.60;;;;;;;26.33;100.00;95146.25;5092824;28;20547;-60
2022/06/13 07:09:15;;;;;;;0.63;0.63;;;;;;;26.34;100.00;95136.94;5092806;28;20473;-60
2022/06/13 07:11:56;;;;;;;0.57;0.40;;;;;;;26.54;100.00;95134.03;5093255;28;20478;-60
2022/06/13 07:14:28;;;;;;;0.50;0.30;;;;;;;25.96;100.00;95126.41;5092579;28;20878;-61
2022/06/13 07:16:58;;;;;;;0.60;0.50;;;;;;;25.09;100.00;95146.59;5092800;28;20452;-60
2022/06/13 07:19:27;;;;;;;0.90;0.90;;;;;;;25.64;100.00;95138.84;5092083;28;20424;-61
2022/06/13 07:21:57;;;;;;;2.20;0.77;;;;;;;25.53;100.00;95140.63;5093023;28;20477;-60
2022/06/13 07:24:26;;;;;;;0.60;0.57;;;;;;;25.54;100.00;95145.72;5091517;28;20420;-61
2022/06/13 07:26:56;;;;;;;0.60;0.57;;;;;;;25.56;100.00;95151.53;5090610;28;20503;-61
2022/06/13 07:29:24;;;;;;;0.50;0.50;;;;;;;25.62;100.00;95149.28;5090396;28;20466;-60
2022/06/13 07:31:57;;;;;;;0.67;0.67;;;;;;;24.60;100.00;95152.00;5091586;28;20838;-61
2022/06/13 07:34:28;;;;;;;0.70;0.70;;;;;;;24.78;100.00;95138.75;5091032;28;20428;-61
2022/06/13 07:37:00;;;;;;;0.70;0.63;;;;;;;24.69;100.00;95138.22;5091592;28;20449;-61
2022/06/13 07:39:28;;;;;;;0.70;0.60;;;;;;;25.03;100.00;95147.28;5091802;28;20907;-60
2022/06/13 07:41:58;;;;;;;0.60;0.40;;;;;;;25.51;100.00;95137.50;5092178;28;20980;-60
2022/06/13 07:44:31;;;;;;;1.03;0.70;;;;;;;25.30;100.00;95101.94;5092972;28;20456;-60
2022/06/13 07:47:00;;;;;;;0.50;0.50;;;;;;;25.72;100.00;95144.00;5092308;28;20516;-60
2022/06/13 07:49:29;;;;;;;0.40;0.40;;;;;;;25.76;100.00;95133.94;5092441;28;20899;-60
2022/06/13 07:51:59;;;;;;;0.50;0.40;;;;;;;25.55;100.00;95147.25;5092003;28;20479;-60
2022/06/13 07:54:28;;;;;;;0.40;0.30;;;;;;;25.23;100.00;95149.50;5092415;28;20426;-61
2022/06/13 07:56:56;;;;;;;0.40;0.30;;;;;;;25.17;100.00;95150.97;5092349;28;20416;-62
2022/06/13 07:59:30;;;;;;;0.40;0.30;;;;;;;25.51;100.00;95148.34;5093215;28;20917;-63
2022/06/13 08:01:59;;;;;;;0.77;0.70;;;;;;;24.92;100.00;95149.06;5092849;28;20428;-62
2022/06/13 08:04:29;;;;;;;0.60;0.30;;;;;;;25.25;100.00;95149.91;5092157;28;20428;-62
2022/06/13 08:07:18;;;;;;;0.50;0.50;;;;;;;25.38;100.00;95095.44;5091731;28;20849;-62
2022/06/13 08:09:47;;;;;;;0.53;0.50;;;;;;;24.98;100.00;95153.78;5091947;28;20416;-62
2022/06/13 08:12:18;;;;;;;6.43;0.40;;;;;;;24.72;100.00;95159.16;5092184;28;20476;-62
2022/06/13 08:14:47;;;;;;;0.70;0.47;;;;;;;25.21;100.00;95135.53;5092260;28;20459;-62
2022/06/13 08:17:18;;;;;;;0.67;0.67;;;;;;;25.98;100.00;95156.72;5092180;28;20876;-62
2022/06/13 08:19:47;;;;;;;0.40;0.30;;;;;;;26.87;100.00;95159.19;5092189;28;20448;-61
2022/06/13 08:22:15;;;;;;;0.43;0.37;;;;;;;26.39;100.00;95106.69;5091827;28;20932;-60
2022/06/13 08:24:45;;;;;;;2.30;0.40;;;;;;;27.36;95.33;95145.16;5091855;28;20459;-60
2022/06/13 08:27:14;;;;;;;0.40;0.40;;;;;;;26.57;88.23;94948.41;5091712;28;20507;-59
2022/06/13 08:29:42;;;;;;;0.40;0.30;;;;;;;27.88;90.28;95146.59;5092408;28;20936;-59
2022/06/13 08:32:13;;;;;;;0.40;0.30;;;;;;;28.39;87.92;95124.56;5096007;28;20840;-59
2022/06/13 08:34:42;;;;;;;0.40;0.30;;;;;;;28.66;88.31;95144.13;5095961;28;20424;-59
2022/06/13 08:37:11;;;;;;;0.60;0.60;;;;;;;28.42;86.08;95142.88;5095600;28;20989;-59
2022/06/13 08:39:39;;;;;;;0.40;0.30;;;;;;;28.85;85.83;95138.28;5095466;28;20424;-59
2022/06/13 08:42:16;;;;;;;0.40;0.40;;;;;;;28.57;86.76;95132.78;5095888;28;20420;-59
2022/06/13 08:44:53;;;;;;;0.40;0.30;;;;;;;28.83;82.98;95124.25;5096080;28;20427;-58
2022/06/13 08:47:32;;;;;;;0.50;0.30;;;;;;;29.55;77.81;95121.81;5095511;28;20467;-58
2022/06/13 08:50:16;;;;;;;0.50;0.40;;;;;;;29.35;75.50;95087.16;5095865;28;20870;-58
2022/06/13 08:52:55;;;;;;;0.40;0.30;;;;;;;29.89;73.31;95135.78;5095123;28;20984;-58
2022/06/13 08:55:32;;;;;;;0.50;0.40;;;;;;;29.37;74.53;95071.16;5094958;28;20770;-57
2022/06/13 08:58:11;;;;;;;0.63;0.50;;;;;;;27.97;86.34;95108.88;5095173;28;20447;-59
2022/06/13 09:00:45;;;;;;;0.60;0.60;;;;;;;28.97;93.28;95126.97;5095279;28;20512;-58
2022/06/13 09:03:19;;;;;;;0.40;0.30;;;;;;;28.79;81.60;95126.22;5095464;28;20433;-58
2022/06/13 09:05:55;;;;;;;0.40;0.37;;;;;;;27.41;85.97;94978.78;5095099;28;20423;-58
2022/06/13 09:08:33;;;;;;;0.50;0.30;;;;;;;28.04;90.05;95143.56;5094908;28;20459;-59
2022/06/13 09:11:07;;;;;;;0.40;0.40;;;;;;;27.83;97.81;95113.50;5094754;28;20519;-59
2022/06/13 09:13:44;;;;;;;1.00;1.00;;;;;;;27.44;87.54;95113.34;5095003;28;20455;-60
2022/06/13 09:16:18;;;;;;;0.30;0.20;;;;;;;27.65;94.70;95125.09;5095004;28;20435;-59
2022/06/13 09:18:50;;;;;;;0.60;0.57;;;;;;;28.14;94.88;95127.25;5094866;28;20422;-59
2022/06/13 09:21:27;;;;;;;0.43;0.43;;;;;;;28.25;87.83;95133.53;5095250;28;20424;-59
2022/06/13 09:24:07;;;;;;;0.40;0.40;;;;;;;27.75;92.13;95043.84;5094720;28;20927;-59
2022/06/13 09:26:44;;;;;;;2.30;0.50;;;;;;;28.88;85.72;95091.13;5094647;28;20516;-59
2022/06/13 09:29:19;;;;;;;0.50;0.40;;;;;;;29.34;82.38;95135.53;5094634;28;20515;-58
2022/06/13 09:31:53;;;;;;;0.40;0.37;;;;;;;29.43;77.45;95129.66;5094676;28;20427;-58
2022/06/13 09:34:29;;;;;;;0.50;0.30;;;;;;;29.04;76.51;95082.53;5094492;28;20424;-58
2022/06/13 09:37:05;;;;;;;0.50;0.50;;;;;;;28.80;72.05;95035.78;5094773;28;20890;-58
2022/06/13 09:39:33;;;;;;;0.57;0.50;;;;;;;29.30;73.89;95125.78;5094404;28;20481;-59
2022/06/13 09:42:23;;;;;;;0.50;0.40;;;;;;;29.10;74.17;95155.41;5093868;28;20452;-59
2022/06/13 09:45:18;;;;;;;0.40;0.30;;;;;;;29.21;71.17;95111.75;5093330;28;20440;-59
2022/06/13 09:47:53;;;;;;;0.30;0.30;;;;;;;29.43;73.31;95121.47;5094563;28;20506;-59
2022/06/13 09:50:30;;;;;;;0.40;0.40;;;;;;;29.00;75.46;95032.63;5095209;28;20442;-59
2022/06/13 09:53:05;;;;;;;0.40;0.30;;;;;;;30.16;69.48;95117.69;5094232;28;20475;-58
2022/06/13 09:55:44;;;;;;;0.40;0.40;;;;;;;28.87;71.42;94936.78;5094415;28;20452;-58
2022/06/13 09:58:21;;;;;;;0.50;0.50;;;;;;;29.78;61.68;95123.34;5094357;28;20451;-58
2022/06/13 10:01:02;;;;;;;0.60;0.40;;;;;;;29.35;64.81;95084.41;5095385;28;20424;-58
2022/06/13 10:03:42;;;;;;;0.50;0.50;;;;;;;29.13;66.65;95058.31;5094100;28;20420;-58
2022/06/13 10:06:30;;;;;;;0.50;0.40;;;;;;;29.73;72.78;95110.81;5093934;28;20900;-58
2022/06/13 10:09:22;;;;;;;0.50;0.40;;;;;;;29.50;66.92;95114.03;5095159;28;20903;-58
2022/06/13 10:12:01;;;;;;;0.60;0.60;;;;;;;29.43;62.55;95083.22;5094148;28;20455;-58
2022/06/13 10:14:47;;;;;;;0.47;0.40;;;;;;;29.72;59.54;95116.69;5094045;28;20532;-58
2022/06/13 10:17:27;;;;;;;0.40;0.30;;;;;;;28.96;61.54;95032.66;5093704;28;20425;-58
2022/06/13 10:20:07;;;;;;;0.50;0.40;;;;;;;28.65;58.30;94911.53;5093963;28;20424;-58
2022/06/13 10:22:44;;;;;;;0.57;0.40;;;;;;;29.78;59.08;95069.47;5093989;28;20502;-58
2022/06/13 10:25:34;;;;;;;0.40;0.30;;;;;;;29.13;83.67;95110.19;5093478;28;20464;-58
2022/06/13 10:28:18;;;;;;;0.60;0.30;;;;;;;29.12;86.66;95117.59;5093385;28;20507;-59
2022/06/13 10:30:57;;;;;;;0.40;0.40;;;;;;;28.72;87.03;95033.44;5093736;28;20420;-59
2022/06/13 10:33:40;;;;;;;0.40;0.40;;;;;;;28.58;95.71;95094.22;5093024;28;20519;-59
2022/06/13 10:36:19;;;;;;;0.43;0.40;;;;;;;28.43;97.97;95081.75;5093694;28;20858;-59
2022/06/13 10:38:57;;;;;;;0.47;0.47;;;;;;;28.52;96.58;95109.41;5091714;28;20473;-59
2022/06/13 10:41:28;;;;;;;0.60;0.60;;;;;;;28.53;96.47;95105.53;5093544;28;20485;-58
2022/06/13 10:43:58;;;;;;;0.40;0.30;;;;;;;28.86;92.79;95104.38;5093229;28;20455;-58
2022/06/13 10:46:27;;;;;;;0.57;0.50;;;;;;;28.32;88.41;95105.47;5093162;28;20431;-58
2022/06/13 10:49:03;;;;;;;0.40;0.40;;;;;;;28.40;89.21;95098.88;5092866;28;20460;-59
2022/06/13 10:51:32;;;;;;;0.50;0.40;;;;;;;28.66;86.86;95093.09;5093068;28;20424;-59
2022/06/13 10:54:08;;;;;;;0.40;0.40;;;;;;;28.65;85.92;95090.72;5091756;28;21034;-59
2022/06/13 10:56:42;;;;;;;0.50;0.50;;;;;;;28.62;87.89;95039.69;5093138;28;20502;-59
2022/06/13 10:59:24;;;;;;;0.40;0.30;;;;;;;28.55;83.76;95092.28;5093080;28;20507;-58
2022/06/13 11:02:00;;;;;;;0.50;0.50;;;;;;;28.88;82.34;95093.84;5092519;28;20448;-57
2022/06/13 11:04:32;;;;;;;0.60;0.33;;;;;;;28.66;79.14;95078.66;5093005;28;20441;-57
2022/06/13 11:07:03;;;;;;;0.40;0.40;;;;;;;28.48;79.75;95048.66;5092850;28;20839;-57
2022/06/13 11:09:38;;;;;;;0.40;0.33;;;;;;;28.92;79.42;95089.94;5092695;28;20517;-57
2022/06/13 11:12:19;;;;;;;0.43;0.30;;;;;;;29.31;75.62;95065.34;5093462;28;20456;-60
2022/06/13 11:23:37;;;;;;;0.40;0.30;;;;;;;31.67;57.43;95062.06;5092671;28;20452;-58
2022/06/13 11:27:39;;;;;;;0.93;0.70;;;;;;;32.10;46.22;95054.09;5092424;28;20515;-58
2022/06/13 11:28:55;;;;;;;0.43;0.33;;;;;;;32.82;36.75;95049.84;5092149;28;20483;-58
2022/06/13 11:31:26;;;;;;;0.40;0.40;;;;;;;33.58;34.24;95052.41;5092568;28;20495;-59
2022/06/13 11:33:55;;;;;;;0.40;0.30;;;;;;;33.45;33.81;95031.44;5092387;28;20508;-58
2022/06/13 11:36:27;;;;;;;0.83;0.83;;;;;;;33.08;36.63;95047.06;5092316;28;20428;-58
2022/06/13 11:38:59;;;;;;;0.40;0.40;;;;;;;32.50;38.11;95051.13;5091894;28;20416;-57
2022/06/13 11:41:33;;;;;;;0.40;0.30;;;;;;;31.96;39.78;95049.53;5091889;28;20416;-58
2022/06/13 11:44:06;;;;;;;4.77;0.40;;;;;;;32.05;38.02;95055.34;5091970;28;20959;-58
2022/06/13 11:46:40;;;;;;;0.50;0.50;;;;;;;32.11;38.96;95028.19;5092229;28;20420;-58
2022/06/13 11:49:27;;;;;;;0.50;0.43;;;;;;;31.66;40.07;95036.63;5091903;28;20546;-58
2022/06/13 11:52:00;;;;;;;0.90;0.90;;;;;;;31.36;37.86;95072.97;5091322;28;20920;-58
2022/06/13 11:54:32;;;;;;;0.60;0.60;;;;;;;30.90;42.33;95086.34;5092031;28;20451;-58
2022/06/13 11:57:27;;;;;;;0.77;0.70;;;;;;;29.63;44.54;95083.53;5092198;28;20466;-59
2022/06/13 11:59:59;;;;;;;0.50;0.50;;;;;;;28.74;54.24;95086.44;5091850;28;20450;-59
2022/06/13 12:02:37;;;;;;;0.70;0.50;;;;;;;28.44;54.91;95096.91;5091854;28;20431;-59
2022/06/13 12:05:15;;;;;;;0.53;0.33;;;;;;;27.54;52.49;95071.78;5091642;28;20777;-60
2022/06/13 12:07:52;;;;;;;0.40;0.40;;;;;;;27.58;58.02;95144.13;5091695;28;20458;-60
2022/06/13 12:10:25;;;;;;;0.60;0.50;;;;;;;28.01;62.44;95166.91;5091721;28;20976;-61
2022/06/13 12:12:54;;;;;;;0.60;0.47;;;;;;;26.96;63.08;95177.91;5091777;28;20816;-63
2022/06/13 12:15:32;;;;;;;0.70;0.70;;;;;;;25.48;57.07;95097.53;5102220;28;20420;-80
2022/06/13 12:18:07;;;;;;;1.00;0.53;;;;;;;26.12;58.62;95178.63;5111536;28;20404;-82
2022/06/13 12:20:51;;;;;;;0.57;0.57;;;;;;;26.04;57.38;95176.16;5097997;28;20930;-79